createdAt,value
2018-11-02T00:00:49.395Z,4.23
2018-11-02T00:01:52.778Z,5.30
2018-11-02T00:02:56.174Z,4.33
2018-11-02T00:03:59.622Z,4.57
2018-11-02T00:05:03.113Z,5.93
2018-11-02T00:06:06.583Z,6.13
2018-11-02T00:07:10.027Z,9.07
2018-11-02T00:08:13.400Z,2.70
2018-11-02T00:09:16.903Z,5.07
2018-11-02T00:10:20.389Z,6.30
2018-11-02T00:11:23.836Z,4.10
2018-11-02T00:12:27.537Z,6.23
2018-11-02T00:13:30.958Z,8.33
2018-11-02T00:14:34.504Z,3.67
2018-11-02T00:15:37.920Z,6.30
2018-11-02T00:16:41.311Z,7.53
2018-11-02T00:17:44.762Z,4.83
2018-11-02T00:18:48.122Z,4.93
2018-11-02T00:19:51.509Z,10.57
2018-11-02T00:20:54.904Z,4.70
2018-11-02T00:21:58.566Z,6.70
2018-11-02T00:23:02.062Z,6.17
2018-11-02T00:24:05.465Z,5.47
2018-11-02T00:25:08.948Z,3.43
2018-11-02T00:26:12.491Z,6.57
2018-11-02T00:27:15.897Z,3.67
2018-11-02T00:28:19.275Z,3.73
2018-11-02T00:29:22.672Z,6.73
2018-11-02T00:30:26.071Z,4.87
2018-11-02T00:31:29.442Z,5.33
2018-11-02T00:32:32.818Z,4.53
2018-11-02T00:33:36.375Z,3.63
2018-11-02T00:34:39.797Z,7.27
2018-11-02T00:35:43.204Z,5.77
2018-11-02T00:36:46.710Z,4.27
2018-11-02T00:37:50.112Z,5.93
2018-11-02T00:38:53.458Z,7.63
2018-11-02T00:39:56.876Z,7.77
2018-11-02T00:41:00.304Z,2.00
2018-11-02T00:42:03.770Z,6.27
2018-11-02T00:43:07.244Z,5.33
2018-11-02T00:44:11.140Z,6.17
2018-11-02T00:45:14.514Z,4.80
2018-11-02T00:46:18.011Z,6.00
2018-11-02T00:47:21.485Z,8.97
2018-11-02T00:48:24.887Z,6.40
2018-11-02T00:49:28.257Z,6.10
2018-11-02T00:50:31.626Z,4.33
2018-11-02T00:51:35.796Z,5.20
2018-11-02T00:52:39.219Z,7.53
2018-11-02T00:53:42.667Z,4.80
2018-11-02T00:54:46.113Z,5.20
2018-11-02T00:55:49.592Z,7.67
2018-11-02T00:56:53.013Z,5.80
2018-11-02T00:57:56.419Z,6.93
2018-11-02T00:58:59.809Z,7.43
2018-11-02T01:00:03.175Z,4.97
2018-11-02T01:01:06.553Z,7.60
2018-11-02T01:02:09.959Z,4.87
2018-11-02T01:03:13.351Z,4.00
2018-11-02T01:04:16.718Z,5.90
2018-11-02T01:05:20.160Z,5.63
2018-11-02T01:06:23.659Z,4.73
2018-11-02T01:07:27.034Z,3.53
2018-11-02T01:08:30.549Z,4.50
2018-11-02T01:09:33.930Z,4.23
2018-11-02T01:10:37.301Z,5.37
2018-11-02T01:11:40.843Z,6.13
2018-11-02T01:12:44.213Z,4.80
2018-11-02T01:13:47.709Z,2.63
2018-11-02T01:14:51.085Z,3.93
2018-11-02T01:15:54.444Z,8.10
2018-11-02T01:16:57.831Z,7.67
2018-11-02T01:18:01.225Z,4.27
2018-11-02T01:19:04.823Z,4.03
2018-11-02T01:20:09.969Z,7.53
2018-11-02T01:21:13.461Z,3.00
2018-11-02T01:22:16.850Z,6.63
2018-11-02T01:23:20.240Z,7.30
2018-11-02T01:24:23.623Z,5.33
2018-11-02T01:25:26.996Z,4.23
2018-11-02T01:26:30.496Z,5.40
2018-11-02T01:27:33.934Z,6.03
2018-11-02T01:28:37.305Z,6.53
2018-11-02T01:29:40.826Z,5.20
2018-11-02T01:30:44.210Z,6.30
2018-11-02T01:31:47.715Z,3.33
2018-11-02T01:32:51.185Z,3.67
2018-11-02T01:33:54.604Z,3.47
2018-11-02T01:34:58.300Z,3.90
2018-11-02T01:36:01.676Z,4.40
2018-11-02T01:37:05.520Z,6.10
2018-11-02T01:38:08.946Z,3.70
2018-11-02T01:39:12.397Z,4.67
2018-11-02T01:40:15.778Z,5.17
2018-11-02T01:41:19.680Z,4.47
2018-11-02T01:42:23.072Z,5.17
2018-11-02T01:43:26.464Z,4.63
2018-11-02T01:44:29.872Z,4.57
2018-11-02T01:45:33.243Z,9.00
2018-11-02T01:46:36.645Z,5.57
2018-11-02T01:47:40.066Z,3.33
2018-11-02T01:48:43.944Z,5.47
2018-11-02T01:49:47.315Z,7.63
2018-11-02T01:50:50.769Z,4.70
2018-11-02T01:51:54.261Z,9.60
2018-11-02T01:52:57.655Z,4.60
2018-11-02T01:54:01.025Z,7.47
2018-11-02T01:55:05.029Z,7.27
2018-11-02T01:56:08.480Z,6.37
2018-11-02T01:57:12.792Z,5.17
2018-11-02T01:58:16.179Z,7.67
2018-11-02T01:59:19.522Z,6.47
2018-11-02T02:00:22.959Z,8.80
2018-11-02T02:01:26.449Z,6.80
2018-11-02T02:02:29.959Z,11.63
2018-11-02T02:03:33.374Z,6.67
2018-11-02T02:04:36.735Z,13.07
2018-11-02T02:05:40.119Z,7.07
2018-11-02T02:06:43.483Z,10.23
2018-11-02T02:07:46.877Z,8.20
2018-11-02T02:08:50.294Z,8.90
2018-11-02T02:09:53.856Z,8.27
2018-11-02T02:10:57.243Z,7.57
2018-11-02T02:12:00.759Z,10.60
2018-11-02T02:13:04.158Z,9.37
2018-11-02T02:14:08.075Z,10.07
2018-11-02T02:15:11.869Z,9.43
2018-11-02T02:16:15.259Z,6.33
2018-11-02T02:17:18.621Z,12.20
2018-11-02T02:18:22.008Z,10.37
2018-11-02T02:19:25.460Z,8.93
2018-11-02T02:20:28.853Z,9.13
2018-11-02T02:21:32.334Z,8.83
2018-11-02T02:22:35.729Z,7.53
2018-11-02T02:23:39.112Z,8.47
2018-11-02T02:24:42.484Z,10.00
2018-11-02T02:25:45.866Z,10.93
2018-11-02T02:26:49.272Z,8.47
2018-11-02T02:27:52.680Z,8.67
2018-11-02T02:28:56.048Z,8.73
2018-11-02T02:29:59.512Z,11.73
2018-11-02T02:31:02.900Z,13.87
2018-11-02T02:32:06.569Z,8.43
2018-11-02T02:33:09.969Z,11.10
2018-11-02T02:34:13.497Z,8.07
2018-11-02T02:35:17.060Z,9.30
2018-11-02T02:36:20.552Z,10.70
2018-11-02T02:37:23.940Z,10.63
2018-11-02T02:38:27.312Z,11.20
2018-11-02T02:39:30.704Z,9.60
2018-11-02T02:40:34.212Z,13.03
2018-11-02T02:41:37.736Z,11.43
2018-11-02T02:42:41.928Z,12.83
2018-11-02T02:43:45.411Z,13.10
2018-11-02T02:44:48.790Z,11.20
2018-11-02T02:45:52.395Z,13.87
2018-11-02T02:46:55.834Z,13.63
2018-11-02T02:47:59.225Z,12.20
2018-11-02T02:49:02.617Z,10.77
2018-11-02T02:50:09.368Z,13.97
2018-11-02T02:51:12.976Z,12.07
2018-11-02T02:52:16.361Z,14.27
2018-11-02T02:53:19.768Z,12.17
2018-11-02T02:54:23.129Z,11.43
2018-11-02T02:55:26.604Z,13.07
2018-11-02T02:56:30.571Z,13.33
2018-11-02T02:57:34.207Z,13.80
2018-11-02T02:58:37.529Z,13.97
2018-11-02T02:59:40.984Z,17.87
2018-11-02T03:00:44.373Z,11.33
2018-11-02T03:01:47.749Z,10.00
2018-11-02T03:02:51.234Z,13.63
2018-11-02T03:03:54.709Z,17.27
2018-11-02T03:04:58.153Z,16.17
2018-11-02T03:06:01.837Z,10.57
2018-11-02T03:07:05.379Z,12.03
2018-11-02T03:08:08.779Z,17.97
2018-11-02T03:09:12.172Z,14.57
2018-11-02T03:10:15.560Z,14.07
2018-11-02T03:11:19.631Z,11.43
2018-11-02T03:12:22.973Z,16.37
2018-11-02T03:13:26.439Z,14.07
2018-11-02T03:14:30.030Z,11.87
2018-11-02T03:15:33.414Z,13.33
2018-11-02T03:16:36.810Z,14.60
2018-11-02T03:17:40.197Z,16.77
2018-11-02T03:18:43.654Z,12.33
2018-11-02T03:19:47.039Z,16.17
2018-11-02T03:20:50.388Z,15.57
2018-11-02T03:21:53.748Z,14.27
2018-11-02T03:22:57.116Z,13.43
2018-11-02T03:24:00.513Z,16.07
2018-11-02T03:25:03.881Z,12.97
2018-11-02T03:26:07.382Z,11.77
2018-11-02T03:27:10.763Z,15.77
2018-11-02T03:28:14.216Z,13.43
2018-11-02T03:29:17.828Z,12.13
2018-11-02T03:30:21.229Z,13.90
2018-11-02T03:31:24.788Z,17.23
2018-11-02T03:32:28.266Z,15.50
2018-11-02T03:33:31.644Z,12.93
2018-11-02T03:34:35.588Z,17.90
2018-11-02T03:35:39.089Z,11.73
2018-11-02T03:36:42.552Z,10.83
2018-11-02T03:37:45.934Z,11.77
2018-11-02T03:38:49.326Z,12.93
2018-11-02T03:39:52.806Z,11.67
2018-11-02T03:40:56.192Z,14.60
2018-11-02T03:42:00.200Z,12.37
2018-11-02T03:43:03.589Z,13.07
2018-11-02T03:44:07.190Z,14.50
2018-11-02T03:45:10.574Z,13.10
2018-11-02T03:46:14.038Z,12.60
2018-11-02T03:47:17.434Z,13.87
2018-11-02T03:48:20.833Z,16.90
2018-11-02T03:49:24.238Z,14.20
2018-11-02T03:50:27.938Z,12.33
2018-11-02T03:51:31.321Z,14.47
2018-11-02T03:52:34.700Z,11.70
2018-11-02T03:53:38.234Z,16.33
2018-11-02T03:54:41.741Z,12.97
2018-11-02T03:55:45.155Z,12.00
2018-11-02T03:56:48.668Z,13.17
2018-11-02T03:57:52.117Z,18.30
2018-11-02T03:58:55.623Z,16.30
2018-11-02T03:59:59.107Z,12.63
2018-11-02T04:01:02.567Z,12.57
2018-11-02T04:02:06.145Z,11.77
2018-11-02T04:03:09.630Z,10.70
2018-11-02T04:04:13.159Z,17.13
2018-11-02T04:05:16.949Z,11.67
2018-11-02T04:06:20.305Z,12.40
2018-11-02T04:07:23.703Z,14.73
2018-11-02T04:08:27.199Z,13.20
2018-11-02T04:09:30.702Z,11.37
2018-11-02T04:10:34.169Z,16.00
2018-11-02T04:11:37.763Z,16.53
2018-11-02T04:12:41.863Z,11.23
2018-11-02T04:13:45.370Z,11.13
2018-11-02T04:14:48.720Z,13.60
2018-11-02T04:15:52.209Z,12.27
2018-11-02T04:16:55.633Z,13.23
2018-11-02T04:17:59.021Z,12.07
2018-11-02T04:19:02.504Z,10.57
2018-11-02T04:20:07.376Z,13.17
2018-11-02T04:21:10.760Z,13.07
2018-11-02T04:22:15.278Z,13.77
2018-11-02T04:23:18.649Z,11.43
2018-11-02T04:24:22.872Z,10.30
2018-11-02T04:25:26.254Z,13.17
2018-11-02T04:26:29.812Z,13.90
2018-11-02T04:27:33.197Z,11.90
2018-11-02T04:28:36.714Z,11.37
2018-11-02T04:29:40.116Z,13.60
2018-11-02T04:30:43.605Z,9.97
2018-11-02T04:31:47.012Z,15.07
2018-11-02T04:32:51.096Z,10.27
2018-11-02T04:33:54.553Z,9.67
2018-11-02T04:34:57.941Z,16.27
2018-11-02T04:36:01.483Z,17.57
2018-11-02T04:37:04.913Z,14.40
2018-11-02T04:38:08.433Z,12.40
2018-11-02T04:39:13.171Z,13.60
2018-11-02T04:40:16.587Z,12.67
2018-11-02T04:41:19.973Z,12.70
2018-11-02T04:42:23.367Z,10.27
2018-11-02T04:43:26.745Z,11.30
2018-11-02T04:44:30.124Z,10.40
2018-11-02T04:45:39.105Z,14.53
2018-11-02T04:46:42.671Z,14.43
2018-11-02T04:47:46.168Z,11.47
2018-11-02T04:49:59.335Z,10.40
2018-11-02T04:51:02.810Z,10.53
2018-11-02T04:52:06.339Z,10.60
2018-11-02T04:53:10.028Z,13.27
2018-11-02T04:54:13.418Z,9.73
2018-11-02T04:55:16.789Z,14.63
2018-11-02T04:56:20.184Z,10.13
2018-11-02T04:57:23.554Z,14.47
2018-11-02T04:58:27.045Z,9.43
2018-11-02T04:59:30.491Z,14.53
2018-11-02T05:00:33.859Z,12.03
2018-11-02T05:01:37.324Z,10.77
2018-11-02T05:02:40.709Z,12.00
2018-11-02T05:03:44.142Z,10.23
2018-11-02T05:04:47.549Z,10.60
2018-11-02T05:05:50.933Z,10.23
2018-11-02T05:06:54.338Z,10.47
2018-11-02T05:07:57.961Z,9.87
2018-11-02T05:09:01.460Z,10.57
2018-11-02T05:10:06.400Z,9.50
2018-11-02T05:11:09.809Z,14.40
2018-11-02T05:12:13.309Z,10.33
2018-11-02T05:13:16.673Z,13.57
2018-11-02T05:14:20.057Z,13.00
2018-11-02T05:15:23.437Z,8.93
2018-11-02T05:16:26.816Z,10.93
2018-11-02T05:17:30.200Z,9.10
2018-11-02T05:18:33.593Z,12.53
2018-11-02T05:19:37.047Z,12.03
2018-11-02T05:20:40.421Z,8.60
2018-11-02T05:21:43.806Z,9.87
2018-11-02T05:22:47.164Z,11.27
2018-11-02T05:23:50.552Z,8.10
2018-11-02T05:24:53.957Z,7.27
2018-11-02T05:25:57.317Z,7.80
2018-11-02T05:27:00.697Z,9.73
2018-11-02T05:28:04.223Z,9.57
2018-11-02T05:29:07.634Z,10.20
2018-11-02T05:30:11.651Z,10.00
2018-11-02T05:31:15.028Z,8.03
2018-11-02T05:32:18.415Z,10.57
2018-11-02T05:33:21.893Z,8.40
2018-11-02T05:34:25.395Z,11.47
2018-11-02T05:35:28.794Z,11.47
2018-11-02T05:36:32.169Z,11.57
2018-11-02T05:37:35.549Z,10.20
2018-11-02T05:38:38.924Z,11.60
2018-11-02T05:39:42.403Z,9.17
2018-11-02T05:40:45.718Z,15.73
2018-11-02T05:41:49.097Z,13.93
2018-11-02T05:42:52.501Z,13.10
2018-11-02T05:43:55.877Z,7.87
2018-11-02T05:44:59.253Z,13.70
2018-11-02T05:46:03.321Z,10.47
2018-11-02T05:47:06.777Z,12.63
2018-11-02T05:48:10.096Z,7.83
2018-11-02T05:49:13.506Z,10.60
2018-11-02T05:50:16.888Z,9.53
2018-11-02T05:51:20.273Z,8.67
2018-11-02T05:52:23.723Z,7.17
2018-11-02T05:53:27.105Z,12.33
2018-11-02T05:54:30.596Z,7.37
2018-11-02T05:55:34.026Z,6.23
2018-11-02T05:56:37.477Z,7.80
2018-11-02T05:57:40.857Z,10.93
2018-11-02T05:58:44.858Z,9.43
2018-11-02T05:59:48.242Z,9.97
2018-11-02T06:00:51.681Z,10.07
2018-11-02T06:01:55.097Z,15.07
2018-11-02T06:02:58.460Z,11.27
2018-11-02T06:04:01.857Z,8.00
2018-11-02T06:05:05.886Z,6.83
2018-11-02T06:06:09.240Z,13.00
2018-11-02T06:07:12.644Z,11.33
2018-11-02T06:08:16.010Z,9.20
2018-11-02T06:09:19.514Z,10.20
2018-11-02T06:10:23.017Z,9.60
2018-11-02T06:11:26.472Z,8.90
2018-11-02T06:12:29.862Z,10.57
2018-11-02T06:13:33.421Z,10.37
2018-11-02T06:14:36.797Z,10.63
2018-11-02T06:15:40.203Z,9.87
2018-11-02T06:16:43.582Z,11.93
2018-11-02T06:17:46.937Z,17.63
2018-11-02T06:18:50.342Z,12.13
2018-11-02T06:19:53.725Z,9.40
2018-11-02T06:20:57.103Z,11.73
2018-11-02T06:22:00.494Z,16.13
2018-11-02T06:23:03.868Z,11.33
2018-11-02T06:24:07.290Z,8.83
2018-11-02T06:25:10.963Z,10.27
2018-11-02T06:26:14.383Z,8.83
2018-11-02T06:27:17.795Z,10.30
2018-11-02T06:28:21.242Z,13.77
2018-11-02T06:29:24.611Z,8.13
2018-11-02T06:30:28.017Z,7.60
2018-11-02T06:31:31.442Z,7.33
2018-11-02T06:32:34.913Z,8.33
2018-11-02T06:33:38.359Z,10.00
2018-11-02T06:34:41.853Z,11.93
2018-11-02T06:35:45.211Z,7.80
2018-11-02T06:36:48.673Z,8.67
2018-11-02T06:37:52.080Z,9.27
2018-11-02T06:38:55.637Z,9.60
2018-11-02T06:39:58.919Z,9.17
2018-11-02T06:41:02.327Z,6.50
2018-11-02T06:42:05.725Z,11.87
2018-11-02T06:43:10.153Z,10.03
2018-11-02T06:44:13.590Z,9.77
2018-11-02T06:45:16.993Z,11.57
2018-11-02T06:46:20.382Z,9.03
2018-11-02T06:47:23.808Z,5.67
2018-11-02T06:48:27.252Z,10.97
2018-11-02T06:49:30.746Z,10.23
2018-11-02T06:50:34.121Z,7.33
2018-11-02T06:51:37.504Z,7.97
2018-11-02T06:52:40.911Z,7.37
2018-11-02T06:53:44.328Z,7.93
2018-11-02T06:54:47.733Z,7.27
2018-11-02T06:55:51.263Z,12.23
2018-11-02T06:56:54.704Z,8.43
2018-11-02T06:57:58.252Z,6.70
2018-11-02T06:59:01.707Z,7.40
2018-11-02T07:00:08.265Z,6.37
2018-11-02T07:01:11.510Z,7.90
2018-11-02T07:02:14.965Z,7.23
2018-11-02T07:03:18.376Z,9.70
2018-11-02T07:04:21.774Z,9.37
2018-11-02T07:05:31.718Z,13.97
2018-11-02T07:06:35.188Z,14.97
2018-11-02T07:08:49.086Z,8.73
2018-11-02T07:09:52.768Z,18.97
2018-11-02T07:10:56.406Z,13.60
2018-11-02T07:12:00.085Z,6.57
2018-11-02T07:13:03.766Z,11.30
2018-11-02T07:14:07.767Z,7.00
2018-11-02T07:15:11.160Z,6.73
2018-11-02T07:16:14.728Z,8.87
2018-11-02T07:17:18.225Z,10.77
2018-11-02T07:18:21.631Z,6.30
2018-11-02T07:19:25.225Z,6.10
2018-11-02T07:20:28.736Z,8.87
2018-11-02T07:21:32.242Z,6.83
2018-11-02T07:22:35.895Z,7.47
2018-11-02T07:23:39.416Z,7.23
2018-11-02T07:24:42.827Z,6.03
2018-11-02T07:25:46.264Z,8.17
2018-11-02T07:26:49.701Z,7.87
2018-11-02T07:27:53.234Z,8.50
2018-11-02T07:28:56.671Z,7.63
2018-11-02T07:30:00.460Z,7.73
2018-11-02T07:31:04.127Z,9.37
2018-11-02T07:32:07.752Z,8.97
2018-11-02T07:33:11.533Z,8.13
2018-11-02T07:34:15.243Z,7.37
2018-11-02T07:35:18.846Z,9.73
2018-11-02T07:36:22.678Z,4.83
2018-11-02T07:37:26.436Z,10.20
2018-11-02T07:38:30.006Z,7.83
2018-11-02T07:39:34.505Z,7.40
2018-11-02T07:40:37.952Z,6.23
2018-11-02T07:41:42.300Z,6.13
2018-11-02T07:42:45.860Z,6.73
2018-11-02T07:43:49.447Z,7.30
2018-11-02T07:44:53.036Z,8.57
2018-11-02T07:45:56.583Z,11.73
2018-11-02T07:47:00.228Z,8.17
2018-11-02T07:48:03.806Z,7.23
2018-11-02T07:49:07.352Z,5.97
2018-11-02T07:50:11.864Z,9.07
2018-11-02T07:51:15.466Z,4.77
2018-11-02T07:52:19.716Z,10.30
2018-11-02T07:53:23.309Z,7.23
2018-11-02T07:54:26.829Z,6.70
2018-11-02T07:55:30.756Z,8.37
2018-11-02T07:56:34.269Z,6.33
2018-11-02T07:57:38.007Z,6.10
2018-11-02T07:58:41.673Z,7.73
2018-11-02T07:59:45.189Z,7.50
2018-11-02T08:00:48.755Z,5.43
2018-11-02T08:01:52.352Z,9.47
2018-11-02T08:02:55.808Z,6.77
2018-11-02T08:04:00.044Z,7.10
2018-11-02T08:05:02.926Z,7.60
2018-11-02T08:06:06.793Z,10.53
2018-11-02T08:07:10.423Z,5.33
2018-11-02T08:08:14.781Z,10.37
2018-11-02T08:09:18.617Z,8.03
2018-11-02T08:10:22.485Z,4.77
2018-11-02T08:11:26.813Z,6.73
2018-11-02T08:12:30.593Z,9.83
2018-11-02T08:13:34.656Z,6.23
2018-11-02T08:14:39.018Z,8.13
2018-11-02T08:15:42.910Z,9.27
2018-11-02T08:16:46.478Z,8.60
2018-11-02T08:17:50.093Z,7.17
2018-11-02T08:18:53.663Z,7.03
2018-11-02T08:19:58.069Z,5.30
2018-11-02T08:21:03.107Z,13.43
2018-11-02T08:22:07.070Z,6.83
2018-11-02T08:23:11.474Z,5.20
2018-11-02T08:24:15.090Z,8.07
2018-11-02T08:25:19.319Z,5.70
2018-11-02T08:26:22.956Z,5.40
2018-11-02T08:27:26.489Z,7.87
2018-11-02T08:28:30.232Z,13.17
2018-11-02T08:29:33.859Z,10.27
2018-11-02T08:30:37.548Z,9.23
2018-11-02T08:31:41.089Z,7.63
2018-11-02T08:32:44.686Z,8.87
2018-11-02T08:33:48.348Z,10.37
2018-11-02T08:34:51.988Z,7.57
2018-11-02T08:35:56.196Z,8.90
2018-11-02T08:36:59.734Z,7.00
2018-11-02T08:38:03.404Z,8.53
2018-11-02T08:39:09.012Z,12.23
2018-11-02T08:40:13.493Z,5.30
2018-11-02T08:41:17.150Z,7.77
2018-11-02T08:42:20.848Z,5.43
2018-11-02T08:43:24.652Z,9.53
2018-11-02T08:44:28.336Z,4.77
2018-11-02T08:45:32.116Z,6.13
2018-11-02T08:46:35.857Z,7.83
2018-11-02T08:47:39.343Z,7.17
2018-11-02T08:48:43.113Z,7.17
2018-11-02T08:49:46.838Z,9.07
2018-11-02T08:50:50.953Z,8.33
2018-11-02T08:51:54.521Z,9.07
2018-11-02T08:52:58.754Z,7.20
2018-11-02T08:54:02.494Z,6.80
2018-11-02T08:55:06.387Z,6.97
2018-11-02T08:56:10.628Z,6.37
2018-11-02T08:57:14.369Z,4.63
2018-11-02T08:58:18.959Z,15.97
2018-11-02T08:59:22.552Z,11.13
2018-11-02T09:00:26.218Z,9.40
2018-11-02T09:01:29.978Z,6.63
2018-11-02T09:02:33.678Z,5.53
2018-11-02T09:03:37.319Z,10.27
2018-11-02T09:04:40.957Z,6.67
2018-11-02T09:05:44.645Z,10.43
2018-11-02T09:06:48.184Z,10.90
2018-11-02T09:07:51.745Z,7.60
2018-11-02T09:08:55.223Z,10.20
2018-11-02T09:09:58.848Z,5.07
2018-11-02T09:11:02.309Z,9.50
2018-11-02T09:12:05.807Z,8.03
2018-11-02T09:13:09.096Z,8.30
2018-11-02T09:14:12.468Z,12.80
2018-11-02T09:15:15.852Z,7.60
2018-11-02T09:16:19.320Z,6.40
2018-11-02T09:17:22.700Z,10.37
2018-11-02T09:18:26.097Z,10.03
2018-11-02T09:19:29.571Z,13.03
2018-11-02T09:20:33.015Z,7.03
2018-11-02T09:21:36.610Z,8.97
2018-11-02T09:22:40.255Z,9.57
2018-11-02T09:23:43.677Z,5.87
2018-11-02T09:24:47.091Z,11.83
2018-11-02T09:25:50.607Z,6.17
2018-11-02T09:26:53.999Z,10.77
2018-11-02T09:27:57.423Z,6.73
2018-11-02T09:29:00.963Z,5.60
2018-11-02T09:30:06.167Z,10.23
2018-11-02T09:31:09.668Z,6.03
2018-11-02T09:32:13.092Z,7.60
2018-11-02T09:33:16.502Z,7.63
2018-11-02T09:34:19.899Z,9.17
2018-11-02T09:35:23.313Z,12.17
2018-11-02T09:36:27.111Z,8.47
2018-11-02T09:37:30.660Z,11.23
2018-11-02T09:38:34.054Z,10.00
2018-11-02T09:39:37.546Z,7.27
2018-11-02T09:40:41.023Z,11.37
2018-11-02T09:41:44.487Z,11.93
2018-11-02T09:42:48.486Z,43.87
2018-11-02T09:43:51.893Z,23.80
2018-11-02T09:44:55.317Z,8.10
2018-11-02T09:45:58.713Z,14.80
2018-11-02T09:47:02.106Z,10.17
2018-11-02T09:48:06.279Z,6.97
2018-11-02T09:49:09.735Z,7.10
2018-11-02T09:50:13.364Z,11.03
2018-11-02T09:51:16.866Z,4.53
2018-11-02T09:52:20.227Z,5.90
2018-11-02T09:53:23.621Z,11.27
2018-11-02T09:54:27.104Z,9.97
2018-11-02T09:55:30.500Z,7.97
2018-11-02T09:56:33.963Z,15.50
2018-11-02T09:57:37.618Z,13.43
2018-11-02T09:58:40.956Z,6.97
2018-11-02T09:59:44.392Z,9.00
2018-11-02T10:00:48.007Z,7.57
2018-11-02T10:01:51.242Z,10.77
2018-11-02T10:02:54.775Z,5.57
2018-11-02T10:03:58.201Z,14.43
2018-11-02T10:05:01.603Z,5.37
2018-11-02T10:06:05.190Z,7.67
2018-11-02T10:07:08.648Z,5.23
2018-11-02T10:08:12.071Z,6.78
2018-11-02T10:09:15.511Z,9.03
2018-11-02T10:10:19.044Z,5.10
2018-11-02T10:11:22.600Z,9.93
2018-11-02T10:12:26.086Z,7.37
2018-11-02T10:13:29.547Z,3.37
2018-11-02T10:14:32.948Z,6.53
2018-11-02T10:15:36.389Z,2.97
2018-11-02T10:16:40.267Z,3.22
2018-11-02T10:17:43.739Z,10.23
2018-11-02T10:18:47.133Z,4.97
2018-11-02T10:19:50.562Z,9.68
2018-11-02T10:20:54.074Z,5.42
2018-11-02T10:21:57.489Z,6.03
2018-11-02T10:23:00.970Z,2.20
2018-11-02T10:24:04.803Z,9.70
2018-11-02T10:25:09.395Z,3.20
2018-11-02T10:26:12.781Z,6.35
2018-11-02T10:27:16.212Z,5.78
2018-11-02T10:28:19.759Z,6.30
2018-11-02T10:29:23.121Z,6.17
2018-11-02T10:30:26.626Z,5.80
2018-11-02T10:31:30.040Z,5.55
2018-11-02T10:32:33.504Z,3.27
2018-11-02T10:33:36.973Z,4.47
2018-11-02T10:34:40.696Z,8.45
2018-11-02T10:35:44.108Z,6.65
2018-11-02T10:36:47.530Z,5.10
2018-11-02T10:37:51.204Z,5.00
2018-11-02T10:38:55.308Z,5.15
2018-11-02T10:39:58.756Z,9.05
2018-11-02T10:41:02.445Z,7.43
2018-11-02T10:42:08.149Z,3.83
2018-11-02T10:43:14.565Z,6.53
2018-11-02T10:44:21.328Z,3.60
2018-11-02T10:45:28.047Z,4.28
2018-11-02T10:46:31.384Z,5.33
2018-11-02T10:47:34.895Z,4.67
2018-11-02T10:48:38.257Z,7.00
2018-11-02T10:49:41.697Z,6.35
2018-11-02T10:50:45.084Z,8.35
2018-11-02T10:51:48.464Z,4.33
2018-11-02T10:52:51.866Z,10.13
2018-11-02T10:53:55.268Z,7.45
2018-11-02T10:54:58.694Z,4.72
2018-11-02T10:56:02.192Z,6.03
2018-11-02T10:57:05.945Z,8.03
2018-11-02T10:58:09.340Z,5.70
2018-11-02T10:59:12.729Z,10.15
2018-11-02T11:00:21.396Z,3.13
2018-11-02T11:01:30.242Z,2.15
2018-11-02T11:02:37.540Z,3.90
2018-11-02T11:03:41.251Z,5.37
2018-11-02T11:04:44.940Z,9.33
2018-11-02T11:05:48.374Z,6.80
2018-11-02T11:06:51.803Z,4.35
2018-11-02T11:07:55.295Z,3.50
2018-11-02T11:08:58.707Z,4.67
2018-11-02T11:10:02.127Z,3.30
2018-11-02T11:11:06.645Z,2.23
2018-11-02T11:12:10.218Z,3.03
2018-11-02T11:13:13.680Z,5.07
2018-11-02T11:14:16.840Z,6.93
2018-11-02T11:15:20.331Z,5.87
2018-11-02T11:16:23.712Z,6.03
2018-11-02T11:17:27.116Z,4.63
2018-11-02T11:18:30.514Z,5.57
2018-11-02T11:19:33.920Z,3.17
2018-11-02T11:20:37.299Z,6.63
2018-11-02T11:21:41.633Z,4.43
2018-11-02T11:22:45.157Z,1.60
2018-11-02T11:23:48.553Z,4.13
2018-11-02T11:24:51.937Z,8.93
2018-11-02T11:25:55.344Z,3.43
2018-11-02T11:26:58.800Z,1.53
2018-11-02T11:28:02.388Z,8.63
2018-11-02T11:29:06.259Z,2.53
2018-11-02T11:30:12.903Z,2.73
2018-11-02T11:31:16.289Z,1.50
2018-11-02T11:32:19.707Z,5.13
2018-11-02T11:33:23.103Z,5.10
2018-11-02T11:34:26.498Z,5.30
2018-11-02T11:35:30.017Z,4.80
2018-11-02T11:36:33.497Z,3.37
2018-11-02T11:37:36.899Z,1.17
2018-11-02T11:38:40.323Z,3.57
2018-11-02T11:39:43.871Z,6.10
2018-11-02T11:40:47.311Z,4.90
2018-11-02T11:41:50.830Z,9.60
2018-11-02T11:42:54.378Z,4.97
2018-11-02T11:43:57.795Z,2.60
2018-11-02T11:45:01.263Z,1.00
2018-11-02T11:46:04.817Z,4.57
2018-11-02T11:47:08.317Z,2.77
2018-11-02T11:48:11.718Z,3.57
2018-11-02T11:49:15.228Z,7.47
2018-11-02T11:50:22.976Z,4.60
2018-11-02T11:51:26.395Z,5.93
2018-11-02T11:52:29.821Z,3.77
2018-11-02T11:53:33.259Z,1.20
2018-11-02T11:54:36.833Z,3.60
2018-11-02T11:55:40.245Z,7.40
2018-11-02T11:56:43.650Z,3.77
2018-11-02T11:57:47.085Z,3.40
2018-11-02T11:58:50.595Z,2.23
2018-11-02T11:59:54.010Z,4.72
2018-11-02T12:00:57.519Z,1.87
2018-11-02T12:02:00.933Z,3.13
2018-11-02T12:03:04.404Z,2.42
2018-11-02T12:04:07.849Z,2.58
2018-11-02T12:05:13.522Z,1.90
2018-11-02T12:06:17.001Z,2.65
2018-11-02T12:07:20.412Z,1.42
2018-11-02T12:08:24.094Z,4.23
2018-11-02T12:09:27.521Z,1.77
2018-11-02T12:10:31.048Z,1.70
2018-11-02T12:11:34.550Z,2.10
2018-11-02T12:12:38.830Z,3.33
2018-11-02T12:13:42.214Z,3.67
2018-11-02T12:14:45.609Z,4.17
2018-11-02T12:15:49.115Z,3.23
2018-11-02T12:16:52.520Z,6.83
2018-11-02T12:17:55.967Z,2.87
2018-11-02T12:18:59.418Z,5.65
2018-11-02T12:20:02.827Z,2.70
2018-11-02T12:21:06.743Z,3.73
2018-11-02T12:22:10.299Z,3.07
2018-11-02T12:23:13.717Z,3.72
2018-11-02T12:24:17.100Z,4.05
2018-11-02T12:25:20.547Z,2.15
2018-11-02T12:26:23.947Z,5.83
2018-11-02T12:27:27.330Z,4.27
2018-11-02T12:28:30.882Z,7.42
2018-11-02T12:29:34.275Z,1.87
2018-11-02T12:30:37.824Z,1.63
2018-11-02T12:31:41.284Z,4.23
2018-11-02T12:32:44.861Z,2.43
2018-11-02T12:33:48.275Z,2.83
2018-11-02T12:34:51.642Z,4.57
2018-11-02T12:35:55.084Z,3.57
2018-11-02T12:36:58.493Z,3.17
2018-11-02T12:38:01.953Z,2.93
2018-11-02T12:39:07.542Z,3.13
2018-11-02T12:40:13.750Z,1.20
2018-11-02T12:41:17.189Z,4.73
2018-11-02T12:42:20.576Z,3.67
2018-11-02T12:43:24.121Z,3.03
2018-11-02T12:44:27.582Z,1.37
2018-11-02T12:45:30.993Z,3.43
2018-11-02T12:46:34.513Z,4.67
2018-11-02T12:47:38.716Z,2.90
2018-11-02T12:48:42.166Z,3.50
2018-11-02T12:49:45.958Z,1.07
2018-11-02T12:50:48.998Z,5.20
2018-11-02T12:51:52.417Z,4.25
2018-11-02T12:52:57.537Z,5.97
2018-11-02T12:54:00.959Z,4.75
2018-11-02T12:55:04.698Z,3.05
2018-11-02T12:56:08.080Z,7.20
2018-11-02T12:57:11.492Z,2.37
2018-11-02T12:58:14.926Z,2.20
2018-11-02T12:59:18.338Z,1.25
2018-11-02T13:00:24.910Z,3.52
2018-11-02T13:01:28.299Z,2.80
2018-11-02T13:02:31.679Z,4.30
2018-11-02T13:03:35.181Z,4.07
2018-11-02T13:04:38.871Z,1.70
2018-11-02T13:05:42.309Z,3.75
2018-11-02T13:06:45.710Z,3.80
2018-11-02T13:07:49.121Z,2.40
2018-11-02T13:08:52.558Z,4.80
2018-11-02T13:09:56.093Z,4.03
2018-11-02T13:10:59.589Z,1.57
2018-11-02T13:12:02.984Z,6.63
2018-11-02T13:13:06.601Z,6.60
2018-11-02T13:14:10.479Z,4.40
2018-11-02T13:15:15.273Z,2.07
2018-11-02T13:16:18.690Z,6.37
2018-11-02T13:17:22.131Z,1.27
2018-11-02T13:18:25.468Z,1.17
2018-11-02T13:19:29.011Z,3.47
2018-11-02T13:20:32.462Z,4.93
2018-11-02T13:21:35.923Z,4.07
2018-11-02T13:22:40.099Z,2.60
2018-11-02T13:23:43.529Z,9.13
2018-11-02T13:24:46.964Z,7.57
2018-11-02T13:25:50.511Z,3.10
2018-11-02T13:26:53.922Z,4.03
2018-11-02T13:27:57.308Z,4.13
2018-11-02T13:29:00.740Z,5.10
2018-11-02T13:30:04.252Z,6.63
2018-11-02T13:31:07.603Z,4.93
2018-11-02T13:32:10.991Z,1.07
2018-11-02T13:33:14.426Z,7.13
2018-11-02T13:34:17.832Z,4.00
2018-11-02T13:35:21.435Z,6.43
2018-11-02T13:36:25.560Z,4.57
2018-11-02T13:37:28.913Z,2.63
2018-11-02T13:38:32.314Z,1.30
2018-11-02T13:39:35.798Z,5.47
2018-11-02T13:40:39.250Z,3.80
2018-11-02T13:41:43.180Z,3.73
2018-11-02T13:42:46.919Z,2.40
2018-11-02T13:43:50.305Z,2.80
2018-11-02T13:44:53.803Z,4.63
2018-11-02T13:45:57.219Z,3.57
2018-11-02T13:47:00.666Z,2.03
2018-11-02T13:48:04.227Z,2.73
2018-11-02T13:49:08.403Z,1.83
2018-11-02T13:50:12.418Z,4.67
2018-11-02T13:51:15.857Z,1.13
2018-11-02T13:52:19.251Z,5.40
2018-11-02T13:53:22.672Z,2.65
2018-11-02T13:54:26.672Z,4.43
2018-11-02T13:55:30.117Z,3.23
2018-11-02T13:56:33.495Z,3.17
2018-11-02T13:57:36.900Z,3.30
2018-11-02T13:58:40.307Z,4.17
2018-11-02T13:59:43.700Z,4.93
2018-11-02T14:00:47.144Z,3.40